createdAt,value
2022-12-22T00:00:32.498Z,13.18
2022-12-22T00:03:55.483Z,14.30
2022-12-22T00:07:17.945Z,13.82
2022-12-22T00:10:40.564Z,13.00
2022-12-22T00:14:04.774Z,12.57
2022-12-22T00:17:53.707Z,12.00
2022-12-22T00:21:16.621Z,12.80
2022-12-22T00:24:39.344Z,11.38
2022-12-22T00:28:02.285Z,14.15
2022-12-22T00:31:25.193Z,12.83
2022-12-22T00:34:50.621Z,11.05
2022-12-22T00:38:13.414Z,12.82
2022-12-22T00:41:36.172Z,11.85
2022-12-22T00:44:59.016Z,10.57
2022-12-22T00:48:22.714Z,9.88
2022-12-22T00:51:46.146Z,11.10
2022-12-22T00:55:12.324Z,10.70
2022-12-22T00:58:37.544Z,11.50
2022-12-22T01:02:00.667Z,10.55
2022-12-22T01:05:23.362Z,10.13
2022-12-22T01:08:46.253Z,12.00
2022-12-22T01:12:09.058Z,10.52
2022-12-22T01:15:37.756Z,11.37
2022-12-22T01:19:00.716Z,12.85
2022-12-22T01:22:29.162Z,12.38
2022-12-22T01:25:51.871Z,12.48
2022-12-22T01:29:14.548Z,9.60
2022-12-22T01:32:37.455Z,12.57
2022-12-22T01:36:03.350Z,11.10
2022-12-22T01:39:27.113Z,10.63
2022-12-22T01:42:53.958Z,14.10
2022-12-22T01:46:40.625Z,17.88
2022-12-22T01:50:03.472Z,11.60
2022-12-22T01:53:32.856Z,10.07
2022-12-22T01:56:56.546Z,11.88
2022-12-22T02:03:42.140Z,13.73
2022-12-22T02:07:07.029Z,10.80
2022-12-22T02:10:47.035Z,11.85
2022-12-22T02:14:57.698Z,9.90
2022-12-22T02:18:34.395Z,9.82
2022-12-22T02:22:32.271Z,9.93
2022-12-22T02:26:02.726Z,10.50
2022-12-22T02:29:26.605Z,9.48
2022-12-22T02:32:52.704Z,11.20
2022-12-22T02:36:46.279Z,10.05
2022-12-22T02:40:18.056Z,9.02
2022-12-22T02:43:54.980Z,11.50
2022-12-22T02:47:35.576Z,9.05
2022-12-22T02:51:05.646Z,10.32
2022-12-22T02:54:29.323Z,9.23
2022-12-22T03:01:16.477Z,11.35
2022-12-22T03:04:39.026Z,9.07
2022-12-22T03:08:07.681Z,8.15
2022-12-22T03:11:31.193Z,11.25
2022-12-22T03:14:53.992Z,10.02
2022-12-22T03:18:22.629Z,9.13
2022-12-22T03:21:45.314Z,8.95
2022-12-22T03:25:08.029Z,8.88
2022-12-22T03:28:12.414Z,11.50
2022-12-22T03:31:16.771Z,8.93
2022-12-22T03:34:21.151Z,10.05
2022-12-22T03:37:25.493Z,9.95
2022-12-22T03:40:31.122Z,9.32
2022-12-22T03:43:53.731Z,11.13
2022-12-22T03:46:57.925Z,9.05
2022-12-22T03:50:01.820Z,8.73
2022-12-22T03:53:05.972Z,8.80
2022-12-22T03:56:10.081Z,8.82
2022-12-22T03:59:14.488Z,12.00
2022-12-22T04:02:18.763Z,9.57
2022-12-22T04:05:23.029Z,8.75
2022-12-22T04:08:26.857Z,8.98
2022-12-22T04:11:49.449Z,8.65
2022-12-22T04:14:53.583Z,9.93
2022-12-22T04:17:58.375Z,7.53
2022-12-22T04:21:02.515Z,8.60
2022-12-22T04:24:06.787Z,7.90
2022-12-22T04:27:10.683Z,8.73
2022-12-22T04:30:15.834Z,7.22
2022-12-22T04:33:19.834Z,9.23
2022-12-22T04:36:23.968Z,10.13
2022-12-22T04:39:28.246Z,8.18
2022-12-22T04:42:32.034Z,6.65
2022-12-22T04:45:35.935Z,6.97
2022-12-22T04:48:39.953Z,6.63
2022-12-22T04:51:43.971Z,7.97
2022-12-22T04:54:47.961Z,8.00
2022-12-22T04:57:51.810Z,6.25
2022-12-22T05:00:55.928Z,7.78
2022-12-22T05:03:59.823Z,6.85
2022-12-22T05:07:04.743Z,8.07
2022-12-22T05:10:10.188Z,7.35
2022-12-22T05:13:14.289Z,6.75
2022-12-22T05:16:18.350Z,6.20
2022-12-22T05:19:26.135Z,6.47
2022-12-22T05:22:34.508Z,7.18
2022-12-22T05:25:38.717Z,6.40
2022-12-22T05:28:44.365Z,7.45
2022-12-22T05:31:48.293Z,8.10
2022-12-22T05:34:52.240Z,6.68
2022-12-22T05:37:56.091Z,8.13
2022-12-22T05:41:04.374Z,6.20
2022-12-22T05:44:08.863Z,8.18
2022-12-22T05:47:12.813Z,5.90
2022-12-22T05:50:19.918Z,6.68
2022-12-22T05:53:24.207Z,6.20
2022-12-22T05:56:28.294Z,6.75
2022-12-22T05:59:33.664Z,8.20
2022-12-22T06:02:38.181Z,7.05
2022-12-22T06:05:42.513Z,6.82
2022-12-22T06:08:46.806Z,6.43
2022-12-22T06:11:50.743Z,7.28
2022-12-22T06:14:54.563Z,7.35
2022-12-22T06:17:58.471Z,7.40
2022-12-22T06:21:02.412Z,6.22
2022-12-22T06:24:06.592Z,9.35
2022-12-22T06:27:11.094Z,7.30
2022-12-22T06:30:16.462Z,7.65
2022-12-22T06:33:20.794Z,8.07
2022-12-22T06:36:25.169Z,8.25
2022-12-22T06:39:29.469Z,7.18
2022-12-22T06:42:52.360Z,7.28
2022-12-22T06:45:56.420Z,7.32
2022-12-22T06:49:00.597Z,6.38
2022-12-22T06:52:08.751Z,5.93
2022-12-22T06:55:12.614Z,7.60
2022-12-22T06:58:16.851Z,7.03
2022-12-22T07:01:21.406Z,6.55
2022-12-22T07:04:25.391Z,6.15
2022-12-22T07:07:29.615Z,6.15
2022-12-22T07:10:52.580Z,8.10
2022-12-22T07:13:56.800Z,6.20
2022-12-22T07:17:01.202Z,8.05
2022-12-22T07:20:05.986Z,7.05
2022-12-22T07:23:10.125Z,7.13
2022-12-22T07:26:15.163Z,7.40
2022-12-22T07:29:19.291Z,6.05
2022-12-22T07:32:23.710Z,6.57
2022-12-22T07:35:27.664Z,6.10
2022-12-22T07:38:36.526Z,5.35
2022-12-22T07:41:59.209Z,6.47
2022-12-22T07:45:03.416Z,5.65
2022-12-22T07:48:27.430Z,6.15
2022-12-22T07:51:39.042Z,8.10
2022-12-22T07:54:43.345Z,6.82
2022-12-22T07:57:47.743Z,3.63
2022-12-22T08:00:57.635Z,4.70
2022-12-22T08:04:01.903Z,3.60
2022-12-22T08:07:05.934Z,5.95
2022-12-22T08:10:10.983Z,6.00
2022-12-22T08:13:15.006Z,6.10
2022-12-22T08:16:20.497Z,5.00
2022-12-22T08:19:24.329Z,5.30
2022-12-22T08:22:30.204Z,5.57
2022-12-22T08:25:34.912Z,5.70
2022-12-22T08:28:49.700Z,4.63
2022-12-22T08:31:54.425Z,4.70
2022-12-22T08:34:58.351Z,8.25
2022-12-22T08:38:03.051Z,6.43
2022-12-22T08:41:10.560Z,6.65
2022-12-22T08:44:14.915Z,7.97
2022-12-22T08:47:20.695Z,7.13
2022-12-22T08:50:27.793Z,9.20
2022-12-22T08:54:04.345Z,8.13
2022-12-22T08:56:56.084Z,6.18
2022-12-22T09:00:00.259Z,7.63
2022-12-22T09:03:04.364Z,6.93
2022-12-22T09:06:08.602Z,6.13
2022-12-22T09:09:14.338Z,8.80
2022-12-22T09:12:18.710Z,7.13
2022-12-22T09:15:22.886Z,4.85
2022-12-22T09:18:27.071Z,7.38
2022-12-22T09:21:31.376Z,5.95
2022-12-22T09:24:35.627Z,6.93
2022-12-22T09:27:39.505Z,8.15
2022-12-22T09:30:49.776Z,6.72
2022-12-22T09:33:54.194Z,6.60
2022-12-22T09:36:58.658Z,7.15
2022-12-22T09:40:02.704Z,6.53
2022-12-22T09:43:07.024Z,8.35
2022-12-22T09:46:33.022Z,5.60
2022-12-22T09:49:36.965Z,8.48
2022-12-22T09:52:46.589Z,7.30
2022-12-22T09:55:51.593Z,6.95
2022-12-22T09:58:56.258Z,7.22
2022-12-22T10:02:23.286Z,6.22
2022-12-22T10:05:44.697Z,7.53
2022-12-22T10:08:48.839Z,7.55
2022-12-22T10:11:57.671Z,6.25
2022-12-22T10:15:01.419Z,5.90
2022-12-22T10:18:14.536Z,5.65
2022-12-22T10:21:22.759Z,7.57
2022-12-22T10:24:29.745Z,6.82
2022-12-22T10:27:41.913Z,5.60
2022-12-22T10:30:47.261Z,5.93
2022-12-22T10:33:54.024Z,8.07
2022-12-22T10:37:04.075Z,7.68
2022-12-22T10:40:20.171Z,3.55
2022-12-22T10:43:27.928Z,5.63
2022-12-22T10:46:34.125Z,3.60
2022-12-22T10:52:52.157Z,3.60
2022-12-22T10:56:07.921Z,2.85
2022-12-22T10:59:20.911Z,4.13
2022-12-22T11:02:27.071Z,2.83
2022-12-22T11:05:32.999Z,3.63
2022-12-22T11:08:37.161Z,2.22
2022-12-22T11:11:56.727Z,3.60
2022-12-22T11:15:24.290Z,3.65
2022-12-22T11:18:34.850Z,3.40
2022-12-22T11:21:41.899Z,2.95
2022-12-22T11:24:55.880Z,1.23
2022-12-22T11:28:09.023Z,4.15
2022-12-22T11:31:48.863Z,2.83
2022-12-22T11:35:29.605Z,2.75
2022-12-22T11:38:45.676Z,1.88
2022-12-22T11:42:05.178Z,3.20
2022-12-22T11:45:24.281Z,2.75
2022-12-22T11:48:40.333Z,5.63
2022-12-22T11:52:15.344Z,2.50
2022-12-22T11:55:25.099Z,0.82
2022-12-22T11:58:52.398Z,2.95
2022-12-22T12:02:08.453Z,2.38
2022-12-22T12:05:34.307Z,2.22
2022-12-22T12:08:54.866Z,1.58
2022-12-22T12:11:58.855Z,1.92
2022-12-22T12:15:34.768Z,3.15
2022-12-22T12:18:54.093Z,3.55
2022-12-22T12:22:01.694Z,2.15
2022-12-22T12:25:28.407Z,1.95
2022-12-22T12:28:40.156Z,3.80
2022-12-22T12:32:13.693Z,1.83
2022-12-22T12:35:43.235Z,3.50
2022-12-22T12:39:11.908Z,6.40
2022-12-22T12:42:31.335Z,2.63
2022-12-22T12:45:35.535Z,3.90
2022-12-22T12:48:40.343Z,2.42
2022-12-22T12:51:49.397Z,5.65
2022-12-22T12:55:33.016Z,6.78
2022-12-22T12:58:37.683Z,3.83
2022-12-22T13:01:41.752Z,5.15
2022-12-22T13:05:07.833Z,2.30
2022-12-22T13:08:16.119Z,2.05
2022-12-22T13:12:10.746Z,6.70
2022-12-22T13:15:01.333Z,5.45
2022-12-22T13:18:25.318Z,1.27
2022-12-22T13:21:54.932Z,3.42
2022-12-22T13:25:01.963Z,2.53
2022-12-22T13:28:07.837Z,2.28
2022-12-22T13:31:36.211Z,3.88
2022-12-22T13:35:20.623Z,2.28
2022-12-22T13:38:33.747Z,3.08
2022-12-22T13:41:40.909Z,1.48
2022-12-22T13:44:44.938Z,2.40
2022-12-22T13:47:49.805Z,3.97
2022-12-22T13:50:57.649Z,5.03
2022-12-22T13:54:12.770Z,5.55
2022-12-22T13:57:20.438Z,3.78
2022-12-22T14:00:26.799Z,4.30
2022-12-22T14:06:55.946Z,6.43
2022-12-22T14:10:00.198Z,3.85
2022-12-22T14:13:32.917Z,4.82
2022-12-22T14:16:44.249Z,2.85
2022-12-22T14:19:51.288Z,3.28
2022-12-22T14:23:02.997Z,1.88
2022-12-22T14:26:12.897Z,3.53
2022-12-22T14:29:21.401Z,1.88
2022-12-22T14:32:52.392Z,3.03
2022-12-22T14:36:16.769Z,3.10
2022-12-22T14:39:24.202Z,2.65
2022-12-22T14:42:34.413Z,3.33
2022-12-22T14:45:38.660Z,3.83
2022-12-22T14:48:46.755Z,2.97
2022-12-22T14:52:06.806Z,2.55
2022-12-22T14:55:51.778Z,4.68
2022-12-22T14:59:23.715Z,5.57
2022-12-22T15:02:40.120Z,4.38
2022-12-22T15:05:45.493Z,3.15
2022-12-22T15:08:52.531Z,3.13
2022-12-22T15:12:04.519Z,4.97
2022-12-22T15:15:27.033Z,5.70
2022-12-22T15:18:32.854Z,5.95
2022-12-22T15:21:37.682Z,5.22
2022-12-22T15:24:41.906Z,7.78
2022-12-22T15:27:49.109Z,7.93
2022-12-22T15:30:52.987Z,7.32
2022-12-22T15:34:00.504Z,8.75
2022-12-22T15:37:04.443Z,8.90
2022-12-22T15:40:21.258Z,9.95
2022-12-22T15:46:59.063Z,11.00
2022-12-22T15:50:03.460Z,9.70
2022-12-22T15:53:11.454Z,9.38
2022-12-22T15:56:20.333Z,9.40
2022-12-22T15:59:27.161Z,10.27
2022-12-22T16:02:31.194Z,10.63
2022-12-22T16:05:35.973Z,9.65
2022-12-22T16:08:42.043Z,9.00
2022-12-22T16:11:47.603Z,8.45
2022-12-22T16:14:54.343Z,10.95
2022-12-22T16:17:59.582Z,13.43
2022-12-22T16:21:27.769Z,11.40
2022-12-22T16:24:36.022Z,9.52
2022-12-22T16:27:39.745Z,10.35
2022-12-22T16:30:44.100Z,10.60
2022-12-22T16:33:49.076Z,11.38
2022-12-22T16:36:53.156Z,12.60
2022-12-22T16:39:56.996Z,10.93
2022-12-22T16:46:26.971Z,9.75
2022-12-22T16:49:31.184Z,10.25
2022-12-22T16:52:41.108Z,11.13
2022-12-22T16:55:45.137Z,10.75
2022-12-22T16:58:49.652Z,10.77
2022-12-22T17:01:57.159Z,11.90
2022-12-22T17:05:02.394Z,12.07
2022-12-22T17:08:07.967Z,13.73
2022-12-22T17:11:22.602Z,15.27
2022-12-22T17:14:39.737Z,13.57
2022-12-22T17:17:43.960Z,14.50
2022-12-22T17:20:50.955Z,13.57
2022-12-22T17:23:55.394Z,12.38
2022-12-22T17:27:05.690Z,11.15
2022-12-22T17:30:18.410Z,10.02
2022-12-22T17:33:22.680Z,11.13
2022-12-22T17:36:34.401Z,7.75
2022-12-22T17:39:38.783Z,8.65
2022-12-22T17:42:42.889Z,7.78
2022-12-22T17:45:47.846Z,8.27
2022-12-22T17:48:51.938Z,9.88
2022-12-22T17:51:55.940Z,9.20
2022-12-22T17:55:00.185Z,8.00
2022-12-22T17:58:04.252Z,9.52
2022-12-22T18:01:34.170Z,7.93
2022-12-22T18:04:38.464Z,7.38
2022-12-22T18:07:43.554Z,9.15
2022-12-22T18:10:48.477Z,11.00
2022-12-22T18:13:53.111Z,10.43
2022-12-22T18:16:58.307Z,10.88
2022-12-22T18:20:02.464Z,10.35
2022-12-22T18:23:12.158Z,10.32
2022-12-22T18:26:28.226Z,9.90
2022-12-22T18:29:31.973Z,10.35
2022-12-22T18:32:37.934Z,10.85
2022-12-22T18:35:43.104Z,10.52
2022-12-22T18:38:48.754Z,9.95
2022-12-22T18:41:54.316Z,16.13
2022-12-22T18:44:58.412Z,12.05
2022-12-22T18:48:02.691Z,14.38
2022-12-22T18:51:13.408Z,14.43
2022-12-22T18:54:25.939Z,14.02
2022-12-22T18:57:29.866Z,17.27
2022-12-22T19:00:36.672Z,13.07
2022-12-22T19:03:40.425Z,11.80
2022-12-22T19:06:44.219Z,13.68
2022-12-22T19:09:49.001Z,13.80
2022-12-22T19:12:56.008Z,11.05
2022-12-22T19:16:00.485Z,10.82
2022-12-22T19:19:04.436Z,11.45
2022-12-22T19:22:12.499Z,11.23
2022-12-22T19:25:19.859Z,12.63
2022-12-22T19:28:34.392Z,11.80
2022-12-22T19:31:38.845Z,13.23
2022-12-22T19:34:42.902Z,10.43
2022-12-22T19:37:48.740Z,12.93
2022-12-22T19:40:55.062Z,12.38
2022-12-22T19:43:58.951Z,13.07
2022-12-22T19:47:03.272Z,12.35
2022-12-22T19:50:15.995Z,11.95
2022-12-22T19:53:20.046Z,13.40
2022-12-22T19:56:27.179Z,13.10
2022-12-22T19:59:39.163Z,13.38
2022-12-22T20:02:44.925Z,13.35
2022-12-22T20:05:49.243Z,14.35
2022-12-22T20:08:54.118Z,14.18
2022-12-22T20:11:58.360Z,15.15
2022-12-22T20:15:18.549Z,19.98
2022-12-22T20:18:24.991Z,16.30
2022-12-22T20:21:30.428Z,18.48
2022-12-22T20:24:34.680Z,18.35
2022-12-22T20:27:38.699Z,20.48
2022-12-22T20:30:43.185Z,16.77
2022-12-22T20:33:47.567Z,16.20
2022-12-22T20:36:51.793Z,21.02
2022-12-22T20:39:55.775Z,15.75
2022-12-22T20:43:00.131Z,13.82
2022-12-22T20:46:13.769Z,16.02
2022-12-22T20:49:17.895Z,15.38
2022-12-22T20:52:22.086Z,15.40
2022-12-22T20:55:27.944Z,14.63
2022-12-22T20:58:35.211Z,15.00
2022-12-22T21:01:39.501Z,14.02
2022-12-22T21:04:43.290Z,14.77
2022-12-22T21:07:51.894Z,15.32
2022-12-22T21:10:55.997Z,14.02
2022-12-22T21:14:00.182Z,14.15
2022-12-22T21:17:04.716Z,14.93
2022-12-22T21:20:23.023Z,12.50
2022-12-22T21:23:27.159Z,11.43
2022-12-22T21:26:37.107Z,12.20
2022-12-22T21:29:41.119Z,15.25
2022-12-22T21:32:45.827Z,14.75
2022-12-22T21:35:50.323Z,15.38
2022-12-22T21:38:58.130Z,13.23
2022-12-22T21:42:04.207Z,13.93
2022-12-22T21:45:13.020Z,12.77
2022-12-22T21:48:19.881Z,12.25
2022-12-22T21:51:24.091Z,11.20
2022-12-22T21:54:27.729Z,11.95
2022-12-22T21:57:31.446Z,12.35
2022-12-22T22:00:35.793Z,10.95
2022-12-22T22:03:39.626Z,11.27
2022-12-22T22:06:43.742Z,15.38
2022-12-22T22:09:48.011Z,12.65
2022-12-22T22:12:52.916Z,13.85
2022-12-22T22:15:56.950Z,13.13
2022-12-22T22:19:00.933Z,13.73
2022-12-22T22:22:04.716Z,11.13
2022-12-22T22:25:09.883Z,11.13
2022-12-22T22:28:14.102Z,12.90
2022-12-22T22:31:18.005Z,10.82
2022-12-22T22:34:22.251Z,11.23
2022-12-22T22:37:26.327Z,11.20
2022-12-22T22:40:30.084Z,11.32
2022-12-22T22:43:33.923Z,9.68
2022-12-22T22:46:37.909Z,10.10
2022-12-22T22:49:41.726Z,10.02
2022-12-22T22:52:45.968Z,9.80
2022-12-22T22:55:50.067Z,10.35
2022-12-22T22:58:53.855Z,12.98
2022-12-22T23:01:57.931Z,11.07
2022-12-22T23:05:01.834Z,8.93
2022-12-22T23:08:05.921Z,12.48
2022-12-22T23:11:14.344Z,9.50
2022-12-22T23:14:19.071Z,8.95
2022-12-22T23:17:23.113Z,11.63
2022-12-22T23:20:27.176Z,11.50
2022-12-22T23:23:32.503Z,9.52
2022-12-22T23:26:37.107Z,12.65
2022-12-22T23:29:40.832Z,9.05
2022-12-22T23:32:44.854Z,10.68
2022-12-22T23:35:52.604Z,11.00
2022-12-22T23:38:56.485Z,8.82
2022-12-22T23:42:00.576Z,9.48
2022-12-22T23:45:04.700Z,12.90
2022-12-22T23:48:09.723Z,10.73
2022-12-22T23:51:13.831Z,9.15
2022-12-22T23:54:17.843Z,12.45
2022-12-22T23:57:21.863Z,8.73
